sensor_id;sensor_type;location;lat;lon;timestamp;pressure;altitude;pressure_sealevel;temperature;humidity
39341;BME280;25059;52.132;21.062;2023-11-21T09:09:39;100038.44;;;2.76;100.00
39341;BME280;25059;52.132;21.062;2023-11-21T09:12:36;100032.97;;;2.98;100.00
39341;BME280;25059;52.132;21.062;2023-11-21T09:15:26;100047.06;;;2.77;100.00
39341;BME280;25059;52.132;21.062;2023-11-21T09:18:14;100040.44;;;3.20;100.00
39341;BME280;25059;52.132;21.062;2023-11-21T09:20:59;100049.69;;;2.75;100.00
39341;BME280;25059;52.132;21.062;2023-11-21T09:23:45;100045.69;;;2.48;100.00
39341;BME280;25059;52.132;21.062;2023-11-21T09:26:30;100056.66;;;2.72;100.00
39341;BME280;25059;52.132;21.062;2023-11-21T09:29:31;100059.88;;;2.90;100.00
39341;BME280;25059;52.132;21.062;2023-11-21T09:32:20;100062.09;;;2.49;100.00
39341;BME280;25059;52.132;21.062;2023-11-21T09:35:06;100056.25;;;2.29;100.00
39341;BME280;25059;52.132;21.062;2023-11-21T09:37:52;100057.81;;;2.45;100.00
39341;BME280;25059;52.132;21.062;2023-11-21T09:40:44;100069.88;;;2.49;100.00
39341;BME280;25059;52.132;21.062;2023-11-21T09:43:30;100064.72;;;2.47;100.00
39341;BME280;25059;52.132;21.062;2023-11-21T09:46:17;100058.13;;;2.92;100.00
39341;BME280;25059;52.132;21.062;2023-11-21T09:49:06;100046.78;;;2.98;100.00
39341;BME280;25059;52.132;21.062;2023-11-21T09:52:01;100054.66;;;2.94;100.00
39341;BME280;25059;52.132;21.062;2023-11-21T09:54:53;100044.63;;;3.29;100.00
39341;BME280;25059;52.132;21.062;2023-11-21T09:57:41;100041.53;;;3.03;100.00
39341;BME280;25059;52.132;21.062;2023-11-21T10:00:32;100047.81;;;3.49;100.00
39341;BME280;25059;52.132;21.062;2023-11-21T10:03:20;100059.44;;;3.81;100.00
39341;BME280;25059;52.132;21.062;2023-11-21T10:06:06;100049.31;;;4.15;100.00
39341;BME280;25059;52.132;21.062;2023-11-21T10:08:56;100072.19;;;4.45;100.00
39341;BME280;25059;52.132;21.062;2023-11-21T10:11:42;100058.53;;;4.33;100.00
39341;BME280;25059;52.132;21.062;2023-11-21T10:14:28;100065.06;;;4.55;100.00
39341;BME280;25059;52.132;21.062;2023-11-21T10:17:15;100062.84;;;4.34;100.00
39341;BME280;25059;52.132;21.062;2023-11-21T10:20:04;100061.75;;;4.90;100.00
39341;BME280;25059;52.132;21.062;2023-11-21T10:22:56;100072.84;;;4.57;100.00
39341;BME280;25059;52.132;21.062;2023-11-21T10:25:44;100059.44;;;4.76;100.00
39341;BME280;25059;52.132;21.062;2023-11-21T10:28:35;100069.44;;;4.96;100.00
39341;BME280;25059;52.132;21.062;2023-11-21T10:31:22;100071.56;;;4.33;100.00
39341;BME280;25059;52.132;21.062;2023-11-21T10:34:13;100071.06;;;4.59;100.00
39341;BME280;25059;52.132;21.062;2023-11-21T10:37:12;100077.44;;;4.87;100.00
39341;BME280;25059;52.132;21.062;2023-11-21T10:39:59;100067.06;;;4.85;100.00
39341;BME280;25059;52.132;21.062;2023-11-21T10:42:44;100070.88;;;4.68;100.00
39341;BME280;25059;52.132;21.062;2023-11-21T10:45:33;100074.66;;;4.96;100.00
39341;BME280;25059;52.132;21.062;2023-11-21T10:48:37;100068.28;;;5.49;100.00
39341;BME280;25059;52.132;21.062;2023-11-21T10:51:22;100063.84;;;5.14;100.00
39341;BME280;25059;52.132;21.062;2023-11-21T10:54:09;100057.31;;;4.95;100.00
39341;BME280;25059;52.132;21.062;2023-11-21T10:56:57;100072.78;;;5.03;100.00
39341;BME280;25059;52.132;21.062;2023-11-21T10:59:47;100068.84;;;4.83;100.00
39341;BME280;25059;52.132;21.062;2023-11-21T11:02:33;100088.81;;;4.83;100.00
39341;BME280;25059;52.132;21.062;2023-11-21T11:05:25;100090.19;;;4.08;100.00
39341;BME280;25059;52.132;21.062;2023-11-21T11:08:18;100078.25;;;4.46;100.00
39341;BME280;25059;52.132;21.062;2023-11-21T11:11:05;100090.16;;;4.59;100.00
39341;BME280;25059;52.132;21.062;2023-11-21T11:13:50;100075.66;;;4.44;100.00
39341;BME280;25059;52.132;21.062;2023-11-21T11:16:43;100080.91;;;4.43;100.00
39341;BME280;25059;52.132;21.062;2023-11-21T11:19:30;100087.03;;;4.40;100.00
39341;BME280;25059;52.132;21.062;2023-11-21T11:28:50;100084.44;;;4.39;100.00
39341;BME280;25059;52.132;21.062;2023-11-21T11:34:35;100085.78;;;4.12;100.00
39341;BME280;25059;52.132;21.062;2023-11-21T11:37:23;100097.06;;;4.12;100.00
39341;BME280;25059;52.132;21.062;2023-11-21T11:40:11;100087.97;;;3.85;100.00
39341;BME280;25059;52.132;21.062;2023-11-21T11:43:01;100095.16;;;3.70;100.00
39341;BME280;25059;52.132;21.062;2023-11-21T11:45:50;100100.03;;;3.89;100.00
39341;BME280;25059;52.132;21.062;2023-11-21T11:48:41;100065.50;;;3.24;100.00
39341;BME280;25059;52.132;21.062;2023-11-21T11:51:27;100095.47;;;3.47;100.00
39341;BME280;25059;52.132;21.062;2023-11-21T11:54:12;100104.06;;;3.53;100.00
39341;BME280;25059;52.132;21.062;2023-11-21T11:57:10;100104.72;;;3.68;100.00
39341;BME280;25059;52.132;21.062;2023-11-21T12:03:13;100111.28;;;3.32;100.00
39341;BME280;25059;52.132;21.062;2023-11-21T12:06:02;100113.94;;;2.53;100.00
39341;BME280;25059;52.132;21.062;2023-11-21T12:12:14;100114.31;;;2.97;100.00
39341;BME280;25059;52.132;21.062;2023-11-21T12:15:05;100127.16;;;3.09;100.00
39341;BME280;25059;52.132;21.062;2023-11-21T12:17:51;100134.28;;;2.91;100.00
39341;BME280;25059;52.132;21.062;2023-11-21T12:20:43;100116.91;;;2.98;100.00
39341;BME280;25059;52.132;21.062;2023-11-21T12:23:35;100123.00;;;2.94;100.00
39341;BME280;25059;52.132;21.062;2023-11-21T12:26:24;100123.84;;;2.98;100.00
39341;BME280;25059;52.132;21.062;2023-11-21T12:29:19;100118.19;;;2.61;100.00
39341;BME280;25059;52.132;21.062;2023-11-21T12:32:11;100130.59;;;3.11;100.00
39341;BME280;25059;52.132;21.062;2023-11-21T12:35:15;100140.34;;;2.90;100.00
39341;BME280;25059;52.132;21.062;2023-11-21T12:38:22;100127.47;;;2.83;100.00
39341;BME280;25059;52.132;21.062;2023-11-21T12:41:12;100133.97;;;2.38;100.00
39341;BME280;25059;52.132;21.062;2023-11-21T12:44:31;100147.75;;;2.44;100.00
39341;BME280;25059;52.132;21.062;2023-11-21T12:50:31;100111.00;;;1.95;100.00
39341;BME280;25059;52.132;21.062;2023-11-21T12:53:23;100143.56;;;2.30;100.00
39341;BME280;25059;52.132;21.062;2023-11-21T12:56:11;100151.66;;;2.86;100.00
39341;BME280;25059;52.132;21.062;2023-11-21T12:59:00;100112.19;;;2.55;100.00
39341;BME280;25059;52.132;21.062;2023-11-21T13:01:49;100156.97;;;2.76;100.00
39341;BME280;25059;52.132;21.062;2023-11-21T13:04:38;100153.34;;;2.90;100.00
39341;BME280;25059;52.132;21.062;2023-11-21T13:07:29;100138.41;;;3.09;100.00
39341;BME280;25059;52.132;21.062;2023-11-21T13:10:16;100154.47;;;3.40;100.00
39341;BME280;25059;52.132;21.062;2023-11-21T13:13:02;100165.59;;;2.76;100.00
39341;BME280;25059;52.132;21.062;2023-11-21T13:15:56;100161.22;;;2.81;100.00
39341;BME280;25059;52.132;21.062;2023-11-21T13:18:42;100167.28;;;2.80;100.00
39341;BME280;25059;52.132;21.062;2023-11-21T13:21:32;100180.34;;;2.74;100.00
39341;BME280;25059;52.132;21.062;2023-11-21T13:24:21;100170.22;;;2.47;100.00
39341;BME280;25059;52.132;21.062;2023-11-21T13:27:07;100178.84;;;2.49;100.00
39341;BME280;25059;52.132;21.062;2023-11-21T13:29:51;100162.44;;;2.45;100.00
39341;BME280;25059;52.132;21.062;2023-11-21T13:32:36;100181.34;;;2.58;100.00
39341;BME280;25059;52.132;21.062;2023-11-21T13:35:21;100179.69;;;2.51;100.00
39341;BME280;25059;52.132;21.062;2023-11-21T13:38:25;100186.56;;;2.55;100.00
39341;BME280;25059;52.132;21.062;2023-11-21T13:41:16;100200.75;;;2.14;100.00
39341;BME280;25059;52.132;21.062;2023-11-21T13:44:02;100200.69;;;2.22;100.00
39341;BME280;25059;52.132;21.062;2023-11-21T13:47:00;100218.06;;;2.08;100.00
39341;BME280;25059;52.132;21.062;2023-11-21T13:49:44;100220.63;;;2.12;100.00
39341;BME280;25059;52.132;21.062;2023-11-21T13:52:36;100220.69;;;2.05;100.00
39341;BME280;25059;52.132;21.062;2023-11-21T13:55:21;100221.66;;;1.87;100.00
39341;BME280;25059;52.132;21.062;2023-11-21T13:58:12;100238.00;;;1.98;100.00
39341;BME280;25059;52.132;21.062;2023-11-21T14:01:05;100240.50;;;2.15;100.00
39341;BME280;25059;52.132;21.062;2023-11-21T14:03:59;100248.19;;;2.29;100.00
39341;BME280;25059;52.132;21.062;2023-11-21T14:06:56;100249.03;;;2.31;100.00
39341;BME280;25059;52.132;21.062;2023-11-21T14:09:43;100261.41;;;1.84;100.00
39341;BME280;25059;52.132;21.062;2023-11-21T14:12:29;100260.59;;;1.75;100.00
39341;BME280;25059;52.132;21.062;2023-11-21T14:15:16;100279.59;;;1.74;100.00
39341;BME280;25059;52.132;21.062;2023-11-21T14:18:03;100275.34;;;1.64;100.00
39341;BME280;25059;52.132;21.062;2023-11-21T14:20:55;100277.00;;;1.78;100.00
39341;BME280;25059;52.132;21.062;2023-11-21T14:23:41;100295.84;;;2.12;100.00
39341;BME280;25059;52.132;21.062;2023-11-21T14:26:30;100300.19;;;2.06;100.00
39341;BME280;25059;52.132;21.062;2023-11-21T14:29:18;100306.25;;;2.05;100.00
39341;BME280;25059;52.132;21.062;2023-11-21T14:32:06;100307.13;;;2.01;100.00
39341;BME280;25059;52.132;21.062;2023-11-21T14:34:55;100315.03;;;1.72;100.00
39341;BME280;25059;52.132;21.062;2023-11-21T14:37:43;100311.56;;;1.71;100.00
39341;BME280;25059;52.132;21.062;2023-11-21T14:40:29;100315.97;;;1.45;100.00
39341;BME280;25059;52.132;21.062;2023-11-21T14:43:17;100320.22;;;1.67;100.00
39341;BME280;25059;52.132;21.062;2023-11-21T14:46:03;100320.25;;;1.64;100.00
39341;BME280;25059;52.132;21.062;2023-11-21T14:48:50;100331.44;;;1.77;100.00
39341;BME280;25059;52.132;21.062;2023-11-21T14:51:53;100328.78;;;1.90;100.00
39341;BME280;25059;52.132;21.062;2023-11-21T14:54:44;100332.25;;;1.85;100.00
39341;BME280;25059;52.132;21.062;2023-11-21T14:57:31;100337.47;;;1.76;100.00
39341;BME280;25059;52.132;21.062;2023-11-21T15:00:17;100328.94;;;1.42;100.00
39341;BME280;25059;52.132;21.062;2023-11-21T15:03:22;100331.50;;;1.52;100.00
39341;BME280;25059;52.132;21.062;2023-11-21T15:06:28;100341.88;;;1.45;100.00
39341;BME280;25059;52.132;21.062;2023-11-21T15:09:15;100340.06;;;1.79;100.00
39341;BME280;25059;52.132;21.062;2023-11-21T15:12:26;100346.22;;;1.29;100.00
39341;BME280;25059;52.132;21.062;2023-11-21T15:15:19;100333.28;;;1.27;100.00
39341;BME280;25059;52.132;21.062;2023-11-21T15:18:08;100333.28;;;1.31;100.00
39341;BME280;25059;52.132;21.062;2023-11-21T15:21:09;100337.47;;;1.73;100.00
39341;BME280;25059;52.132;21.062;2023-11-21T15:23:56;100345.38;;;1.28;100.00
39341;BME280;25059;52.132;21.062;2023-11-21T15:26:41;100350.47;;;1.57;100.00
39341;BME280;25059;52.132;21.062;2023-11-21T15:29:26;100354.75;;;1.74;100.00
39341;BME280;25059;52.132;21.062;2023-11-21T15:32:12;100349.69;;;1.29;100.00
39341;BME280;25059;52.132;21.062;2023-11-21T15:34:57;100342.75;;;1.38;100.00
39341;BME280;25059;52.132;21.062;2023-11-21T15:37:46;100353.97;;;1.50;100.00
39341;BME280;25059;52.132;21.062;2023-11-21T15:40:30;100367.81;;;1.02;100.00
39341;BME280;25059;52.132;21.062;2023-11-21T15:43:16;100360.03;;;1.37;100.00
39341;BME280;25059;52.132;21.062;2023-11-21T15:46:01;100369.53;;;1.27;100.00
39341;BME280;25059;52.132;21.062;2023-11-21T15:48:50;100385.06;;;1.08;100.00
39341;BME280;25059;52.132;21.062;2023-11-21T15:51:44;100380.75;;;1.17;100.00
39341;BME280;25059;52.132;21.062;2023-11-21T15:54:38;100383.31;;;1.55;100.00
39341;BME280;25059;52.132;21.062;2023-11-21T15:57:23;100383.31;;;1.52;100.00
39341;BME280;25059;52.132;21.062;2023-11-21T16:00:14;100373.00;;;1.23;100.00
39341;BME280;25059;52.132;21.062;2023-11-21T16:03:04;100383.34;;;1.10;100.00
39341;BME280;25059;52.132;21.062;2023-11-21T16:05:51;100399.75;;;1.18;100.00
39341;BME280;25059;52.132;21.062;2023-11-21T16:08:39;100408.38;;;1.26;100.00
39341;BME280;25059;52.132;21.062;2023-11-21T16:11:24;100402.31;;;1.51;100.00
39341;BME280;25059;52.132;21.062;2023-11-21T16:14:09;100407.47;;;1.67;100.00
39341;BME280;25059;52.132;21.062;2023-11-21T16:16:54;100419.59;;;1.45;100.00
39341;BME280;25059;52.132;21.062;2023-11-21T16:19:40;100436.84;;;1.46;100.00
39341;BME280;25059;52.132;21.062;2023-11-21T16:22:27;100436.00;;;1.50;100.00
39341;BME280;25059;52.132;21.062;2023-11-21T16:25:12;100415.28;;;1.32;100.00
39341;BME280;25059;52.132;21.062;2023-11-21T16:27:59;100429.94;;;1.52;100.00
39341;BME280;25059;52.132;21.062;2023-11-21T16:30:50;100439.44;;;1.29;100.00
39341;BME280;25059;52.132;21.062;2023-11-21T16:33:35;100453.25;;;1.33;100.00
39341;BME280;25059;52.132;21.062;2023-11-21T16:36:20;100451.53;;;1.48;100.00
39341;BME280;25059;52.132;21.062;2023-11-21T16:39:05;100460.16;;;1.70;100.00
39341;BME280;25059;52.132;21.062;2023-11-21T16:41:50;100457.56;;;1.41;100.00
39341;BME280;25059;52.132;21.062;2023-11-21T16:44:35;100451.53;;;1.21;100.00
39341;BME280;25059;52.132;21.062;2023-11-21T16:47:20;100460.16;;;1.14;100.00
39341;BME280;25059;52.132;21.062;2023-11-21T16:50:05;100458.44;;;1.17;100.00
39341;BME280;25059;52.132;21.062;2023-11-21T16:52:50;100469.63;;;1.01;100.00
39341;BME280;25059;52.132;21.062;2023-11-21T16:55:35;100446.34;;;1.16;100.00
39341;BME280;25059;52.132;21.062;2023-11-21T16:58:20;100464.47;;;1.25;100.00
39341;BME280;25059;52.132;21.062;2023-11-21T17:01:04;100480.88;;;1.38;100.00
39341;BME280;25059;52.132;21.062;2023-11-21T17:03:51;100473.97;;;1.46;100.00
39341;BME280;25059;52.132;21.062;2023-11-21T17:06:40;100476.53;;;1.10;100.00
39341;BME280;25059;52.132;21.062;2023-11-21T17:09:24;100473.97;;;1.22;100.00
39341;BME280;25059;52.132;21.062;2023-11-21T17:12:09;100483.44;;;0.99;100.00
39341;BME280;25059;52.132;21.062;2023-11-21T17:14:53;100487.78;;;1.33;100.00
39341;BME280;25059;52.132;21.062;2023-11-21T17:17:38;100475.69;;;1.11;100.00
39341;BME280;25059;52.132;21.062;2023-11-21T17:20:23;100495.53;;;1.19;100.00
39341;BME280;25059;52.132;21.062;2023-11-21T17:23:08;100485.19;;;1.24;100.00
39341;BME280;25059;52.132;21.062;2023-11-21T17:25:52;100489.53;;;1.42;100.00
39341;BME280;25059;52.132;21.062;2023-11-21T17:28:37;100476.56;;;1.20;100.00
39341;BME280;25059;52.132;21.062;2023-11-21T17:31:22;100505.03;;;1.20;100.00
39341;BME280;25059;52.132;21.062;2023-11-21T17:34:06;100494.66;;;1.02;100.00
39341;BME280;25059;52.132;21.062;2023-11-21T17:36:51;100501.56;;;1.02;100.00
39341;BME280;25059;52.132;21.062;2023-11-21T17:39:36;100500.72;;;1.12;100.00
39341;BME280;25059;52.132;21.062;2023-11-21T17:42:21;100510.94;;;0.69;100.00
39341;BME280;25059;52.132;21.062;2023-11-21T17:45:06;100521.38;;;0.95;100.00
39341;BME280;25059;52.132;21.062;2023-11-21T17:47:51;100529.13;;;0.90;100.00
39341;BME280;25059;52.132;21.062;2023-11-21T17:50:38;100526.63;;;1.36;100.00
39341;BME280;25059;52.132;21.062;2023-11-21T17:53:24;100516.22;;;1.01;100.00
39341;BME280;25059;52.132;21.062;2023-11-21T17:56:17;100527.44;;;1.05;100.00
39341;BME280;25059;52.132;21.062;2023-11-21T17:59:03;100527.38;;;0.79;100.00
39341;BME280;25059;52.132;21.062;2023-11-21T18:01:49;100534.34;;;1.01;100.00
39341;BME280;25059;52.132;21.062;2023-11-21T18:04:33;100535.19;;;1.00;100.00
39341;BME280;25059;52.132;21.062;2023-11-21T18:07:19;100549.06;;;1.19;100.00
39341;BME280;25059;52.132;21.062;2023-11-21T18:10:04;100551.66;;;1.34;100.00
39341;BME280;25059;52.132;21.062;2023-11-21T18:12:50;100547.25;;;0.89;100.00
39341;BME280;25059;52.132;21.062;2023-11-21T18:15:35;100555.03;;;0.98;100.00
39341;BME280;25059;52.132;21.062;2023-11-21T18:18:19;100561.09;;;1.09;100.00
39341;BME280;25059;52.132;21.062;2023-11-21T18:21:04;100554.13;;;0.87;100.00
39341;BME280;25059;52.132;21.062;2023-11-21T18:23:48;100561.91;;;0.91;100.00
39341;BME280;25059;52.132;21.062;2023-11-21T18:26:33;100561.03;;;0.83;100.00
39341;BME280;25059;52.132;21.062;2023-11-21T18:29:18;100573.97;;;0.86;100.00
39341;BME280;25059;52.132;21.062;2023-11-21T18:32:04;100569.75;;;1.19;100.00
39341;BME280;25059;52.132;21.062;2023-11-21T18:34:54;100580.91;;;0.98;100.00
39341;BME280;25059;52.132;21.062;2023-11-21T18:37:39;100578.34;;;1.03;100.00
39341;BME280;25059;52.132;21.062;2023-11-21T18:40:24;100589.41;;;0.67;100.00
39341;BME280;25059;52.132;21.062;2023-11-21T18:43:08;100581.78;;;0.99;100.00
39341;BME280;25059;52.132;21.062;2023-11-21T18:45:53;100577.50;;;1.07;100.00
39341;BME280;25059;52.132;21.062;2023-11-21T18:48:38;100595.63;;;1.11;100.00
39341;BME280;25059;52.132;21.062;2023-11-21T18:51:23;100596.44;;;0.96;100.00
39341;BME280;25059;52.132;21.062;2023-11-21T18:54:07;100588.66;;;0.93;100.00
39341;BME280;25059;52.132;21.062;2023-11-21T18:56:54;100587.81;;;0.99;100.00
39341;BME280;25059;52.132;21.062;2023-11-21T18:59:39;100559.25;;;0.75;100.00
39341;BME280;25059;52.132;21.062;2023-11-21T19:02:25;100592.88;;;0.73;100.00
39341;BME280;25059;52.132;21.062;2023-11-21T19:05:10;100596.47;;;1.01;100.00
39341;BME280;25059;52.132;21.062;2023-11-21T19:07:55;100603.41;;;1.14;100.00
39341;BME280;25059;52.132;21.062;2023-11-21T19:10:39;100599.97;;;1.23;100.00
39341;BME280;25059;52.132;21.062;2023-11-21T19:13:24;100603.44;;;1.22;100.00
39341;BME280;25059;52.132;21.062;2023-11-21T19:16:09;100597.31;;;1.03;100.00
39341;BME280;25059;52.132;21.062;2023-11-21T19:18:55;100606.78;;;0.90;100.00
39341;BME280;25059;52.132;21.062;2023-11-21T19:21:40;100618.84;;;0.88;100.00
39341;BME280;25059;52.132;21.062;2023-11-21T19:24:25;100621.44;;;0.88;100.00
39341;BME280;25059;52.132;21.062;2023-11-21T19:27:09;100606.75;;;0.89;100.00
39341;BME280;25059;52.132;21.062;2023-11-21T19:29:54;100630.16;;;1.12;100.00
39341;BME280;25059;52.132;21.062;2023-11-21T19:32:38;100637.84;;;0.96;100.00
39341;BME280;25059;52.132;21.062;2023-11-21T19:35:23;100633.53;;;0.99;100.00
39341;BME280;25059;52.132;21.062;2023-11-21T19:38:08;100639.66;;;1.13;100.00
39341;BME280;25059;52.132;21.062;2023-11-21T19:40:54;100646.44;;;0.89;100.00
39341;BME280;25059;52.132;21.062;2023-11-21T19:43:38;100646.63;;;1.31;100.00
39341;BME280;25059;52.132;21.062;2023-11-21T19:46:23;100641.31;;;0.97;100.00
39341;BME280;25059;52.132;21.062;2023-11-21T19:49:08;100653.50;;;1.21;100.00
39341;BME280;25059;52.132;21.062;2023-11-21T19:51:54;100663.81;;;1.13;100.00
39341;BME280;25059;52.132;21.062;2023-11-21T19:54:38;100668.06;;;0.98;100.00
39341;BME280;25059;52.132;21.062;2023-11-21T19:57:23;100666.28;;;0.90;100.00
39341;BME280;25059;52.132;21.062;2023-11-21T20:00:09;100662.16;;;1.27;100.00
39341;BME280;25059;52.132;21.062;2023-11-21T20:02:56;100679.22;;;0.87;100.00
39341;BME280;25059;52.132;21.062;2023-11-21T20:05:41;100669.88;;;1.15;100.00
39341;BME280;25059;52.132;21.062;2023-11-21T20:08:26;100665.50;;;1.07;100.00
39341;BME280;25059;52.132;21.062;2023-11-21T20:11:10;100686.13;;;0.87;100.00
39341;BME280;25059;52.132;21.062;2023-11-21T20:13:55;100686.09;;;0.84;100.00
39341;BME280;25059;52.132;21.062;2023-11-21T20:16:39;100677.34;;;0.63;100.00
39341;BME280;25059;52.132;21.062;2023-11-21T20:19:24;100699.91;;;0.83;100.00
39341;BME280;25059;52.132;21.062;2023-11-21T20:22:09;100711.16;;;0.92;100.00
39341;BME280;25059;52.132;21.062;2023-11-21T20:24:54;100698.03;;;0.62;100.00
39341;BME280;25059;52.132;21.062;2023-11-21T20:27:38;100715.28;;;0.64;100.00
39341;BME280;25059;52.132;21.062;2023-11-21T20:30:25;100714.59;;;0.88;100.00
39341;BME280;25059;52.132;21.062;2023-11-21T20:33:11;100705.91;;;0.80;100.00
39341;BME280;25059;52.132;21.062;2023-11-21T20:35:57;100717.13;;;0.82;100.00
39341;BME280;25059;52.132;21.062;2023-11-21T20:38:42;100717.66;;;0.34;100.00
39341;BME280;25059;52.132;21.062;2023-11-21T20:41:26;100729.03;;;0.57;100.00
39341;BME280;25059;52.132;21.062;2023-11-21T20:44:11;100703.03;;;0.38;100.00
39341;BME280;25059;52.132;21.062;2023-11-21T20:46:56;100728.22;;;0.61;100.00
39341;BME280;25059;52.132;21.062;2023-11-21T20:49:41;100731.75;;;0.74;100.00
39341;BME280;25059;52.132;21.062;2023-11-21T20:52:26;100742.91;;;0.69;100.00
39341;BME280;25059;52.132;21.062;2023-11-21T20:55:10;100731.66;;;0.62;100.00
39341;BME280;25059;52.132;21.062;2023-11-21T20:57:56;100749.75;;;0.60;100.00
39341;BME280;25059;52.132;21.062;2023-11-21T21:00:44;100740.22;;;0.53;100.00
39341;BME280;25059;52.132;21.062;2023-11-21T21:03:28;100758.34;;;0.56;100.00
39341;BME280;25059;52.132;21.062;2023-11-21T21:06:13;100753.28;;;0.72;100.00
39341;BME280;25059;52.132;21.062;2023-11-21T21:08:57;100768.72;;;0.59;100.00
39341;BME280;25059;52.132;21.062;2023-11-21T21:11:43;100773.09;;;0.68;100.00
39341;BME280;25059;52.132;21.062;2023-11-21T21:14:28;100775.81;;;0.85;100.00
39341;BME280;25059;52.132;21.062;2023-11-21T21:17:13;100787.03;;;0.85;100.00
39341;BME280;25059;52.132;21.062;2023-11-21T21:19:58;100787.78;;;0.72;100.00
39341;BME280;25059;52.132;21.062;2023-11-21T21:22:42;100791.88;;;0.44;100.00
39341;BME280;25059;52.132;21.062;2023-11-21T21:25:28;100795.44;;;0.58;100.00
39341;BME280;25059;52.132;21.062;2023-11-21T21:28:14;100789.34;;;0.52;100.00
39341;BME280;25059;52.132;21.062;2023-11-21T21:31:00;100802.28;;;0.53;100.00
39341;BME280;25059;52.132;21.062;2023-11-21T21:33:44;100788.75;;;0.85;100.00
39341;BME280;25059;52.132;21.062;2023-11-21T21:36:30;100800.78;;;0.78;100.00
39341;BME280;25059;52.132;21.062;2023-11-21T21:39:16;100801.53;;;0.65;100.00
39341;BME280;25059;52.132;21.062;2023-11-21T21:42:01;100808.25;;;0.46;100.00
39341;BME280;25059;52.132;21.062;2023-11-21T21:44:46;100819.50;;;0.48;100.00
39341;BME280;25059;52.132;21.062;2023-11-21T21:47:31;100810.97;;;0.58;100.00
39341;BME280;25059;52.132;21.062;2023-11-21T21:50:16;100810.81;;;0.43;100.00
39341;BME280;25059;52.132;21.062;2023-11-21T21:53:01;100822.81;;;0.37;100.00
39341;BME280;25059;52.132;21.062;2023-11-21T21:55:45;100809.97;;;0.44;100.00
39341;BME280;25059;52.132;21.062;2023-11-21T21:58:30;100835.75;;;0.37;100.00
39341;BME280;25059;52.132;21.062;2023-11-21T22:01:15;100827.09;;;0.33;100.00
39341;BME280;25059;52.132;21.062;2023-11-21T22:04:00;100817.59;;;0.32;100.00
39341;BME280;25059;52.132;21.062;2023-11-21T22:06:45;100834.88;;;0.36;100.00
39341;BME280;25059;52.132;21.062;2023-11-21T22:09:29;100826.13;;;0.23;100.00
39341;BME280;25059;52.132;21.062;2023-11-21T22:12:19;100850.41;;;0.36;100.00
39341;BME280;25059;52.132;21.062;2023-11-21T22:15:04;100838.28;;;0.30;100.00
39341;BME280;25059;52.132;21.062;2023-11-21T22:17:49;100853.88;;;0.40;100.00
39341;BME280;25059;52.132;21.062;2023-11-21T22:20:35;100862.50;;;0.40;100.00
39341;BME280;25059;52.132;21.062;2023-11-21T22:23:19;100856.56;;;0.49;100.00
39341;BME280;25059;52.132;21.062;2023-11-21T22:26:04;100862.56;;;0.45;100.00
39341;BME280;25059;52.132;21.062;2023-11-21T22:28:48;100864.03;;;0.21;100.00
39341;BME280;25059;52.132;21.062;2023-11-21T22:31:40;100870.28;;;0.40;100.00
39341;BME280;25059;52.132;21.062;2023-11-21T22:34:25;100873.69;;;0.38;100.00
39341;BME280;25059;52.132;21.062;2023-11-21T22:37:10;100870.13;;;0.28;100.00
39341;BME280;25059;52.132;21.062;2023-11-21T22:39:54;100872.91;;;0.45;100.00
39341;BME280;25059;52.132;21.062;2023-11-21T22:42:39;100878.06;;;0.45;100.00
39341;BME280;25059;52.132;21.062;2023-11-21T22:45:24;100879.00;;;0.50;100.00
39341;BME280;25059;52.132;21.062;2023-11-21T22:48:08;100881.63;;;0.54;100.00
39341;BME280;25059;52.132;21.062;2023-11-21T22:50:53;100881.38;;;0.31;100.00
39341;BME280;25059;52.132;21.062;2023-11-21T22:53:38;100878.78;;;0.30;100.00
39341;BME280;25059;52.132;21.062;2023-11-21T22:56:22;100888.38;;;0.40;100.00
39341;BME280;25059;52.132;21.062;2023-11-21T22:59:07;100874.53;;;0.37;100.00
39341;BME280;25059;52.132;21.062;2023-11-21T23:01:51;100887.38;;;0.27;100.00
39341;BME280;25059;52.132;21.062;2023-11-21T23:04:36;100887.19;;;0.12;100.00
39341;BME280;25059;52.132;21.062;2023-11-21T23:07:21;100885.84;;;0.46;100.00
39341;BME280;25059;52.132;21.062;2023-11-21T23:10:07;100896.00;;;0.29;100.00
39341;BME280;25059;52.132;21.062;2023-11-21T23:12:53;100892.72;;;0.43;100.00
39341;BME280;25059;52.132;21.062;2023-11-21T23:15:40;100888.19;;;0.23;100.00
39341;BME280;25059;52.132;21.062;2023-11-21T23:18:26;100895.09;;;0.26;100.00
39341;BME280;25059;52.132;21.062;2023-11-21T23:21:12;100903.84;;;0.36;100.00
39341;BME280;25059;52.132;21.062;2023-11-21T23:23:57;100912.38;;;0.28;100.00
39341;BME280;25059;52.132;21.062;2023-11-21T23:26:41;100906.31;;;0.26;100.00
39341;BME280;25059;52.132;21.062;2023-11-21T23:29:27;100918.44;;;0.32;100.00
39341;BME280;25059;52.132;21.062;2023-11-21T23:32:11;100912.25;;;0.19;100.00
39341;BME280;25059;52.132;21.062;2023-11-21T23:34:56;100933.19;;;0.39;100.00
39341;BME280;25059;52.132;21.062;2023-11-21T23:37:41;100946.66;;;0.12;100.00
39341;BME280;25059;52.132;21.062;2023-11-21T23:40:25;100932.22;;;0.29;100.00
39341;BME280;25059;52.132;21.062;2023-11-21T23:43:10;100936.75;;;0.50;100.00
39341;BME280;25059;52.132;21.062;2023-11-21T23:45:55;100941.69;;;0.30;100.00
39341;BME280;25059;52.132;21.062;2023-11-21T23:48:40;100940.13;;;0.42;100.00
39341;BME280;25059;52.132;21.062;2023-11-21T23:51:25;100943.38;;;0.27;100.00